Time;durP1;ratioP1;P1;durP2;ratioP2;P2;SDS_P1;SDS_P2;PMS_P1;PMS_P2;Temp;Humidity;BMP_temperature;BMP_pressure;BME280_temperature;BME280_humidity;BME280_pressure;Samples;Min_cycle;Max_cycle;Signal;HPM_P1;HPM_P2
2022/03/18 00:00:33;;;;;;;7.57;5.30;;;7.40;99.90;;;;;;5006762;28;20210;-67
2022/03/18 00:02:59;;;;;;;6.43;5.47;;;7.40;99.90;;;;;;4992057;28;20185;-68
2022/03/18 00:05:26;;;;;;;5.80;5.20;;;7.30;99.90;;;;;;4997146;28;20224;-67
2022/03/18 00:07:53;;;;;;;7.07;5.37;;;7.30;99.90;;;;;;5009048;28;20217;-68
2022/03/18 00:10:20;;;;;;;7.77;4.73;;;7.20;99.90;;;;;;5012256;28;20220;-67
2022/03/18 00:12:51;;;;;;;7.43;4.90;;;7.20;99.90;;;;;;5034074;28;20220;-68
2022/03/18 00:15:18;;;;;;;6.33;4.90;;;7.20;99.90;;;;;;5003799;28;20197;-67
2022/03/18 00:17:44;;;;;;;6.73;4.73;;;7.30;99.90;;;;;;5010785;28;20259;-68
2022/03/18 00:20:14;;;;;;;6.13;4.80;;;7.30;99.90;;;;;;5010604;28;20248;-68
2022/03/18 00:22:43;;;;;;;6.67;4.80;;;7.30;99.90;;;;;;5009026;28;20195;-68
2022/03/18 00:25:11;;;;;;;6.13;4.90;;;7.30;99.90;;;;;;5009150;28;20224;-68
2022/03/18 00:27:42;;;;;;;10.73;5.17;;;7.30;99.90;;;;;;5009146;28;20189;-68
2022/03/18 00:30:16;;;;;;;7.43;5.30;;;7.30;99.90;;;;;;5009717;28;20287;-68
2022/03/18 00:32:44;;;;;;;5.93;5.20;;;7.30;99.90;;;;;;5009445;28;20223;-68
2022/03/18 00:35:11;;;;;;;7.80;5.13;;;7.30;99.90;;;;;;5009887;28;20550;-68
2022/03/18 00:37:40;;;;;;;8.43;5.47;;;7.30;99.90;;;;;;5008062;28;20254;-68
2022/03/18 00:40:09;;;;;;;6.30;5.10;;;7.30;99.90;;;;;;5009503;28;20236;-67
2022/03/18 00:42:36;;;;;;;6.93;4.83;;;7.20;99.90;;;;;;5018451;28;20207;-68
2022/03/18 00:45:05;;;;;;;6.03;5.43;;;7.20;99.90;;;;;;5008987;28;20192;-68
2022/03/18 00:53:03;;;;;;;6.13;4.80;;;7.10;99.90;;;;;;5009087;28;20196;-68
2022/03/18 00:55:29;;;;;;;6.70;4.93;;;7.10;99.90;;;;;;5010445;28;20185;-68
2022/03/18 00:57:55;;;;;;;12.40;5.50;;;7.10;99.90;;;;;;4995380;28;20208;-68
2022/03/18 01:00:22;;;;;;;8.57;5.10;;;7.10;99.90;;;;;;5000797;28;20561;-68
2022/03/18 01:02:49;;;;;;;8.07;5.13;;;7.10;99.90;;;;;;5008904;28;20177;-68
2022/03/18 01:05:18;;;;;;;6.73;4.77;;;7.10;99.90;;;;;;5003210;28;20196;-68
2022/03/18 01:07:44;;;;;;;5.67;4.60;;;7.10;99.90;;;;;;5005991;28;20189;-68
2022/03/18 01:10:11;;;;;;;5.60;4.90;;;7.10;99.90;;;;;;4990627;28;20197;-68
2022/03/18 01:12:37;;;;;;;7.63;5.00;;;7.10;99.90;;;;;;4991937;28;20214;-68
2022/03/18 01:15:04;;;;;;;4.87;4.30;;;7.10;99.90;;;;;;5004932;28;21041;-68
2022/03/18 01:17:30;;;;;;;6.23;4.70;;;7.00;99.90;;;;;;5002110;28;20354;-68
2022/03/18 01:19:57;;;;;;;7.50;4.83;;;6.90;99.90;;;;;;5006852;28;20188;-68
2022/03/18 01:22:23;;;;;;;6.57;4.77;;;7.00;99.90;;;;;;5008477;28;20201;-68
2022/03/18 01:24:49;;;;;;;7.73;4.63;;;6.90;99.90;;;;;;5009142;28;20185;-68
2022/03/18 01:27:15;;;;;;;8.07;5.00;;;7.00;99.90;;;;;;5008051;28;20181;-68
2022/03/18 01:29:41;;;;;;;9.70;4.97;;;7.00;99.90;;;;;;5007785;28;20565;-67
2022/03/18 01:32:08;;;;;;;8.27;5.37;;;6.90;99.90;;;;;;5007251;28;20210;-68
2022/03/18 01:34:34;;;;;;;5.17;4.40;;;6.90;99.90;;;;;;5009004;28;20199;-68
2022/03/18 01:37:00;;;;;;;5.37;4.57;;;6.90;99.90;;;;;;5000082;28;20224;-68
2022/03/18 01:39:26;;;;;;;5.83;4.97;;;6.90;99.90;;;;;;5020679;28;20615;-68
2022/03/18 01:41:53;;;;;;;4.93;4.43;;;6.90;99.90;;;;;;5006952;28;20216;-68
2022/03/18 01:44:20;;;;;;;7.57;4.90;;;6.90;99.90;;;;;;5007001;28;20203;-68
2022/03/18 01:46:48;;;;;;;5.43;4.40;;;7.00;99.90;;;;;;5006712;28;20192;-68
2022/03/18 01:49:14;;;;;;;5.77;4.57;;;7.00;99.90;;;;;;5023724;28;20247;-68
2022/03/18 01:51:41;;;;;;;7.93;3.97;;;7.00;99.90;;;;;;5006233;28;20207;-68
2022/03/18 01:56:54;;;;;;;5.40;4.10;;;7.00;99.90;;;;;;4994285;28;20232;-68
2022/03/18 01:59:21;;;;;;;5.10;4.17;;;7.00;99.90;;;;;;5006800;28;20558;-68
2022/03/18 02:01:47;;;;;;;5.30;4.60;;;6.90;99.90;;;;;;5008337;28;20212;-68
2022/03/18 02:04:14;;;;;;;5.57;4.07;;;6.90;99.90;;;;;;5008432;28;20192;-68
2022/03/18 02:06:42;;;;;;;5.10;4.30;;;6.90;99.90;;;;;;5006726;28;20289;-68
2022/03/18 02:09:09;;;;;;;6.07;4.00;;;6.90;99.90;;;;;;4994030;28;20201;-68
2022/03/18 02:11:35;;;;;;;5.70;4.50;;;6.90;99.90;;;;;;4992843;28;20216;-68
2022/03/18 02:14:02;;;;;;;5.57;4.00;;;6.90;99.90;;;;;;5001841;28;20205;-68
2022/03/18 02:16:28;;;;;;;6.53;4.30;;;6.90;99.90;;;;;;4993843;28;20562;-68
2022/03/18 02:18:55;;;;;;;7.07;4.60;;;6.90;99.90;;;;;;5006752;28;20258;-68
2022/03/18 02:21:28;;;;;;;5.40;4.00;;;6.80;99.90;;;;;;5006801;28;20228;-68
2022/03/18 02:23:54;;;;;;;5.07;3.83;;;6.80;99.90;;;;;;5006491;28;20273;-68
2022/03/18 02:26:20;;;;;;;5.13;4.37;;;6.80;99.90;;;;;;5022679;28;20191;-68
2022/03/18 02:28:49;;;;;;;4.27;3.67;;;6.70;99.90;;;;;;5004547;28;20189;-68
2022/03/18 02:31:15;;;;;;;6.73;3.93;;;6.70;99.90;;;;;;5006645;28;20195;-68
2022/03/18 02:33:41;;;;;;;4.67;3.73;;;6.70;99.90;;;;;;5005708;28;20200;-68
2022/03/18 02:36:08;;;;;;;5.27;4.00;;;6.70;99.90;;;;;;4986481;28;20217;-68
2022/03/18 02:38:34;;;;;;;4.73;3.40;;;6.70;99.90;;;;;;4994735;28;20205;-68
2022/03/18 02:41:00;;;;;;;4.87;3.70;;;6.70;99.90;;;;;;5000399;28;20220;-68
2022/03/18 02:43:26;;;;;;;4.20;3.80;;;6.80;99.90;;;;;;5006022;28;20185;-68
2022/03/18 02:45:53;;;;;;;4.87;3.80;;;6.70;99.90;;;;;;5006084;28;20193;-68
2022/03/18 02:48:19;;;;;;;4.60;3.93;;;6.70;99.90;;;;;;5006009;28;20192;-68
2022/03/18 02:50:45;;;;;;;5.57;4.30;;;6.80;99.90;;;;;;5006062;28;20650;-68
2022/03/18 02:53:11;;;;;;;6.30;4.77;;;6.80;99.90;;;;;;5008630;28;20185;-68
2022/03/18 02:55:38;;;;;;;5.77;4.03;;;6.80;99.90;;;;;;5006704;28;20894;-68
2022/03/18 02:58:04;;;;;;;5.53;3.83;;;6.80;99.90;;;;;;5005635;28;20189;-68
2022/03/18 03:00:30;;;;;;;5.27;4.20;;;6.80;99.90;;;;;;5008422;28;20259;-68
2022/03/18 03:02:56;;;;;;;6.13;3.83;;;6.80;99.90;;;;;;4992225;28;20209;-68
2022/03/18 03:08:07;;;;;;;6.07;4.17;;;6.80;99.90;;;;;;5004696;28;20193;-68
2022/03/18 03:10:38;;;;;;;6.50;3.90;;;6.80;99.90;;;;;;5002037;28;20194;-68
2022/03/18 03:13:10;;;;;;;4.40;3.70;;;6.90;99.90;;;;;;5002267;28;20283;-68
2022/03/18 03:15:38;;;;;;;6.03;4.23;;;6.80;99.90;;;;;;5006336;28;20197;-68
2022/03/18 03:18:08;;;;;;;7.47;3.73;;;6.80;99.90;;;;;;5005674;28;20200;-68
2022/03/18 03:20:34;;;;;;;5.60;4.20;;;6.90;99.90;;;;;;5003627;28;20209;-68
2022/03/18 03:23:01;;;;;;;4.80;3.70;;;6.90;99.90;;;;;;4990485;28;20186;-68
2022/03/18 03:25:27;;;;;;;6.30;3.90;;;6.90;99.90;;;;;;5006949;28;20185;-68
2022/03/18 03:27:56;;;;;;;5.27;3.87;;;6.90;99.90;;;;;;5004401;28;20283;-68
2022/03/18 03:30:24;;;;;;;5.93;4.03;;;6.90;99.90;;;;;;5007610;28;20572;-68
2022/03/18 03:32:51;;;;;;;6.43;4.10;;;6.90;99.90;;;;;;5026993;28;20216;-68
2022/03/18 03:35:18;;;;;;;4.67;4.00;;;6.90;99.90;;;;;;5012056;28;20624;-68
2022/03/18 03:37:45;;;;;;;8.70;4.17;;;6.90;99.90;;;;;;5024942;28;20312;-68
2022/03/18 03:40:13;;;;;;;6.10;3.80;;;6.90;99.90;;;;;;5010025;28;20232;-68
2022/03/18 03:42:45;;;;;;;6.90;3.87;;;6.90;99.90;;;;;;5025158;28;20196;-68
2022/03/18 03:45:13;;;;;;;5.13;3.53;;;6.80;99.90;;;;;;5011111;28;20185;-68
2022/03/18 03:47:41;;;;;;;8.27;4.10;;;6.90;99.90;;;;;;5008536;28;20200;-68
2022/03/18 03:50:10;;;;;;;4.97;3.60;;;6.90;99.90;;;;;;5010705;28;20192;-68
2022/03/18 03:52:36;;;;;;;5.13;4.20;;;6.90;99.90;;;;;;5001489;28;20203;-68
2022/03/18 03:55:05;;;;;;;5.80;4.50;;;6.80;99.90;;;;;;5026454;28;20184;-68
2022/03/18 03:57:32;;;;;;;5.57;4.50;;;6.80;99.90;;;;;;5010360;28;20197;-68
2022/03/18 03:59:58;;;;;;;12.13;4.70;;;6.90;99.90;;;;;;5008429;28;20631;-68
2022/03/18 04:02:27;;;;;;;4.70;3.83;;;6.90;99.90;;;;;;4993433;28;20280;-68
2022/03/18 04:04:53;;;;;;;8.17;4.30;;;6.90;99.90;;;;;;5010711;28;20192;-68
2022/03/18 04:07:20;;;;;;;5.93;4.57;;;6.90;99.90;;;;;;5008521;28;20614;-68
2022/03/18 04:09:49;;;;;;;6.23;4.20;;;7.00;99.90;;;;;;5010802;28;20192;-68
2022/03/18 04:12:15;;;;;;;6.63;4.97;;;7.00;99.90;;;;;;5010774;28;20247;-68
2022/03/18 04:14:42;;;;;;;9.33;4.77;;;7.00;99.90;;;;;;5020389;28;20258;-68
2022/03/18 04:17:08;;;;;;;6.63;4.57;;;7.00;99.90;;;;;;5010062;28;20722;-68
2022/03/18 04:19:34;;;;;;;8.00;4.30;;;7.10;99.90;;;;;;5008076;28;20201;-68
2022/03/18 04:22:00;;;;;;;5.07;4.17;;;7.10;99.90;;;;;;5025386;28;20232;-68
2022/03/18 04:24:27;;;;;;;7.70;4.20;;;7.10;99.90;;;;;;5010024;28;20256;-68
2022/03/18 04:26:53;;;;;;;7.57;4.70;;;7.10;99.90;;;;;;5009922;28;20263;-68
2022/03/18 04:29:19;;;;;;;9.03;5.27;;;7.10;99.90;;;;;;4989598;28;20255;-68
2022/03/18 04:31:45;;;;;;;17.57;9.73;;;7.10;99.90;;;;;;4989460;28;20646;-68
2022/03/18 04:34:12;;;;;;;23.27;11.27;;;7.10;99.90;;;;;;5005628;28;20224;-68
2022/03/18 04:36:39;;;;;;;14.30;9.13;;;7.10;99.90;;;;;;5024443;28;20224;-68
2022/03/18 04:39:05;;;;;;;7.20;6.00;;;7.10;99.90;;;;;;5006535;28;20284;-68
2022/03/18 04:41:31;;;;;;;7.27;4.80;;;7.10;99.90;;;;;;5022823;28;20228;-68
2022/03/18 04:43:58;;;;;;;6.23;4.90;;;7.10;99.90;;;;;;5009036;28;20199;-68
2022/03/18 04:46:24;;;;;;;7.23;4.67;;;7.20;99.90;;;;;;5009823;28;20751;-68
2022/03/18 04:48:51;;;;;;;7.07;5.00;;;7.20;99.90;;;;;;5008950;28;20293;-68
2022/03/18 04:51:17;;;;;;;8.67;4.97;;;7.20;99.90;;;;;;5007640;28;20203;-68
2022/03/18 04:53:43;;;;;;;6.10;4.70;;;7.30;99.90;;;;;;5010329;28;20220;-68
2022/03/18 04:57:15;;;;;;;6.97;5.30;;;7.30;99.90;;;;;;5008735;28;20192;-68
2022/03/18 04:58:57;;;;;;;5.60;4.90;;;7.40;99.90;;;;;;5004744;28;20197;-68
2022/03/18 05:01:25;;;;;;;6.57;5.20;;;7.40;99.90;;;;;;5008017;28;20231;-68
2022/03/18 05:03:52;;;;;;;6.97;5.53;;;7.50;99.90;;;;;;5009163;28;20185;-68
2022/03/18 05:06:18;;;;;;;7.40;5.77;;;7.50;99.90;;;;;;5005932;28;20249;-68
2022/03/18 05:08:45;;;;;;;6.80;4.87;;;7.60;99.90;;;;;;5003474;28;20193;-68
2022/03/18 05:11:12;;;;;;;6.73;5.50;;;7.60;99.90;;;;;;5024734;28;20200;-68
2022/03/18 05:13:39;;;;;;;10.73;5.43;;;7.70;99.90;;;;;;5007928;28;20208;-68
2022/03/18 05:16:06;;;;;;;5.73;5.00;;;7.80;99.90;;;;;;5007948;28;20185;-68
2022/03/18 05:18:32;;;;;;;7.97;5.20;;;7.80;99.90;;;;;;5007358;28;20193;-68
2022/03/18 05:20:58;;;;;;;8.80;5.63;;;7.90;99.90;;;;;;5007941;28;20225;-68
2022/03/18 05:23:25;;;;;;;10.97;5.10;;;7.90;99.90;;;;;;5009965;28;20299;-68
2022/03/18 05:25:51;;;;;;;5.80;5.20;;;8.00;99.90;;;;;;5009958;28;20657;-68
2022/03/18 05:28:18;;;;;;;5.30;4.80;;;8.10;99.90;;;;;;5008155;28;20200;-68
2022/03/18 05:30:44;;;;;;;8.77;5.03;;;8.10;99.90;;;;;;4988413;28;20208;-68
2022/03/18 05:33:10;;;;;;;7.63;4.67;;;8.20;99.90;;;;;;4988670;28;20205;-68
2022/03/18 05:35:37;;;;;;;5.97;5.00;;;8.20;99.90;;;;;;5009631;28;20227;-68
2022/03/18 05:38:03;;;;;;;5.27;4.77;;;8.30;99.90;;;;;;5007633;28;20205;-68
2022/03/18 05:40:29;;;;;;;6.07;5.03;;;8.30;99.90;;;;;;4991839;28;20225;-68
2022/03/18 05:42:56;;;;;;;6.10;5.13;;;8.40;99.90;;;;;;5009027;28;20208;-68
2022/03/18 05:45:23;;;;;;;5.13;4.40;;;8.40;99.90;;;;;;5006196;28;20984;-68
2022/03/18 05:47:50;;;;;;;5.57;4.67;;;8.50;99.90;;;;;;5005959;28;20197;-68
2022/03/18 05:50:17;;;;;;;6.20;4.33;;;8.60;99.90;;;;;;5021961;28;20584;-68
2022/03/18 05:52:45;;;;;;;6.13;4.50;;;8.60;99.90;;;;;;5000732;28;20195;-68
2022/03/18 05:55:12;;;;;;;6.77;4.87;;;8.70;99.90;;;;;;5004761;28;20256;-68
2022/03/18 05:57:39;;;;;;;5.73;4.23;;;8.70;99.90;;;;;;4989322;28;20198;-68
2022/03/18 06:00:06;;;;;;;6.50;4.30;;;8.80;99.90;;;;;;4991159;28;20686;-68
2022/03/18 06:02:36;;;;;;;5.70;4.70;;;8.80;99.90;;;;;;5008185;28;20221;-68
2022/03/18 06:05:02;;;;;;;7.47;3.70;;;8.80;99.90;;;;;;5007919;28;20204;-68
2022/03/18 06:07:29;;;;;;;8.87;4.10;;;8.90;99.90;;;;;;5008786;28;20191;-68
2022/03/18 06:12:40;;;;;;;5.40;3.70;;;9.10;99.90;;;;;;5008442;28;20279;-68
2022/03/18 06:15:06;;;;;;;6.70;4.30;;;9.20;99.90;;;;;;4996733;28;20251;-68
2022/03/18 06:17:33;;;;;;;5.30;3.67;;;9.20;99.90;;;;;;4996378;28;20193;-69
2022/03/18 06:19:59;;;;;;;4.20;3.57;;;9.30;99.90;;;;;;5009135;28;20184;-68
2022/03/18 06:22:25;;;;;;;7.70;3.77;;;9.30;99.90;;;;;;5006087;28;20231;-68
2022/03/18 06:24:51;;;;;;;4.67;4.07;;;9.40;99.90;;;;;;5008657;28;20739;-68
2022/03/18 06:27:18;;;;;;;5.80;4.30;;;9.50;99.90;;;;;;5007560;28;20223;-68
2022/03/18 06:29:44;;;;;;;7.13;4.20;;;9.50;99.90;;;;;;5007031;28;20228;-68
2022/03/18 06:32:11;;;;;;;4.93;3.90;;;9.50;99.90;;;;;;5007287;28;20669;-68
2022/03/18 06:34:38;;;;;;;4.77;3.57;;;9.50;99.90;;;;;;5008699;28;20181;-68
2022/03/18 06:37:05;;;;;;;5.30;3.83;;;9.50;99.90;;;;;;5006043;28;20259;-68
2022/03/18 06:39:32;;;;;;;6.10;3.63;;;9.60;99.90;;;;;;5005052;28;20208;-68
2022/03/18 06:41:58;;;;;;;5.57;4.07;;;9.70;99.90;;;;;;4989011;28;20244;-68
2022/03/18 06:44:24;;;;;;;5.30;3.73;;;9.70;99.90;;;;;;5011955;28;20613;-68
2022/03/18 06:46:51;;;;;;;8.57;3.60;;;9.70;99.90;;;;;;5000286;28;20200;-68
2022/03/18 06:49:17;;;;;;;4.80;3.43;;;9.80;99.90;;;;;;5008776;28;20192;-68
2022/03/18 06:51:43;;;;;;;4.93;3.07;;;9.80;99.90;;;;;;5006336;28;20652;-68
2022/03/18 06:54:12;;;;;;;6.13;3.70;;;10.00;99.90;;;;;;5006497;28;20707;-68
2022/03/18 06:56:38;;;;;;;4.17;3.30;;;10.00;99.90;;;;;;5022962;28;20184;-68
2022/03/18 06:59:05;;;;;;;12.47;3.77;;;10.00;99.90;;;;;;5007898;28;20196;-68
2022/03/18 07:01:31;;;;;;;7.53;3.80;;;10.10;99.90;;;;;;5002205;28;20315;-68
2022/03/18 07:03:58;;;;;;;5.13;3.77;;;10.20;99.90;;;;;;5008108;28;20196;-68
2022/03/18 07:06:24;;;;;;;5.93;4.07;;;10.30;99.90;;;;;;5007324;28;20185;-68
2022/03/18 07:08:50;;;;;;;6.77;4.03;;;10.40;99.90;;;;;;5010340;28;20279;-68
2022/03/18 07:11:17;;;;;;;7.17;4.13;;;10.40;99.90;;;;;;5005926;28;20198;-68
2022/03/18 07:13:45;;;;;;;5.77;3.67;;;;;;;;;;5001194;28;20212;-68
2022/03/18 07:18:57;;;;;;;7.93;3.53;;;;;;;;;;5009836;28;20196;-68
2022/03/18 07:21:24;;;;;;;5.00;3.40;;;;;;;;;;5011184;28;20271;-68
2022/03/18 07:23:53;;;;;;;5.90;3.60;;;;;;;;;;5011384;28;20192;-68
2022/03/18 07:26:21;;;;;;;4.37;3.33;;;;;;;;;;4994308;28;20204;-68
2022/03/18 07:28:48;;;;;;;4.90;3.57;;;;;;;;;;5008658;28;20192;-68
2022/03/18 07:31:15;;;;;;;4.27;3.43;;;;;;;;;;5011196;28;20707;-68
2022/03/18 07:33:41;;;;;;;5.53;4.23;;;;;;;;;;5006345;28;20200;-68
2022/03/18 07:36:08;;;;;;;5.43;4.43;;;;;;;;;;5009842;28;20216;-68
2022/03/18 07:38:35;;;;;;;11.83;7.57;;;;;;;;;;5008389;28;20208;-68
2022/03/18 07:41:02;;;;;;;33.90;16.23;;;;;;;;;;4994073;28;20224;-68
2022/03/18 07:43:29;;;;;;;13.20;6.97;;;;;;;;;;5009917;28;20276;-68
2022/03/18 07:45:56;;;;;;;8.07;5.83;;;;;;;;;;5003458;28;20200;-68
2022/03/18 07:48:27;;;;;;;6.80;4.57;;;;;;;;;;5010453;28;20209;-68
2022/03/18 07:50:55;;;;;;;5.97;4.20;;;;;;;;;;5008624;28;20268;-68
2022/03/18 07:53:21;;;;;;;4.37;3.83;;;;;;;;;;5008431;28;20255;-68
2022/03/18 07:55:48;;;;;;;6.07;3.93;;;;;;;;;;5007152;28;20307;-68
2022/03/18 07:58:15;;;;;;;4.07;3.67;;;;;;;;;;4996969;28;20201;-68
2022/03/18 08:00:43;;;;;;;4.30;3.57;;;;;;;;;;5011038;28;20236;-67
2022/03/18 08:03:09;;;;;;;4.00;3.10;;;;;;;;;;4999995;28;20283;-69
2022/03/18 08:05:36;;;;;;;4.60;3.50;;;;;;;;;;5006432;28;20195;-68
2022/03/18 08:08:03;;;;;;;29.73;14.53;;;;;;;;;;5003925;28;20223;-69
2022/03/18 08:10:29;;;;;;;20.97;10.27;;;;;;;;;;4991607;28;20193;-68
2022/03/18 08:12:56;;;;;;;5.63;4.07;;;;;;;;;;5007385;28;20395;-68
2022/03/18 08:15:23;;;;;;;5.97;3.93;;;;;;;;;;5001170;28;20437;-68
2022/03/18 08:17:51;;;;;;;5.50;3.60;;;;;;;;;;4998604;28;20271;-68
2022/03/18 08:20:19;;;;;;;7.97;3.80;;;;;;;;;;5005832;28;20292;-68
2022/03/18 08:22:47;;;;;;;4.43;3.57;;;;;;;;;;5003384;28;20292;-68
2022/03/18 08:25:15;;;;;;;4.10;3.43;;;;;;;;;;5006577;28;20204;-68
2022/03/18 08:27:41;;;;;;;24.57;13.00;;;;;;;;;;5005923;28;20210;-68
2022/03/18 08:30:11;;;;;;;23.83;12.17;;;;;;;;;;5006764;28;20231;-68
2022/03/18 08:32:38;;;;;;;8.83;5.53;;;;;;;;;;5006315;28;20208;-68
2022/03/18 08:35:07;;;;;;;23.00;11.47;;;;;;;;;;5007470;28;20207;-68
2022/03/18 08:40:19;;;;;;;11.97;6.07;;;;;;;;;;5006645;28;20200;-68
2022/03/18 08:42:45;;;;;;;12.90;6.20;;;;;;;;;;5008397;28;20262;-68
2022/03/18 08:45:12;;;;;;;10.50;5.60;;;;;;;;;;5005043;28;20196;-66
2022/03/18 08:47:39;;;;;;;6.50;3.40;;;;;;;;;;5004074;28;21011;-66
2022/03/18 08:50:06;;;;;;;6.33;3.47;;;;;;;;;;5005127;28;20204;-66
2022/03/18 08:52:33;;;;;;;6.67;3.30;;;;;;;;;;5005784;28;20268;-66
2022/03/18 08:55:00;;;;;;;7.00;4.30;;;;;;;;;;4986471;28;20192;-66
2022/03/18 08:57:28;;;;;;;4.00;3.40;;;;;;;;;;5019934;28;20200;-66
2022/03/18 08:59:56;;;;;;;5.00;3.50;;;;;;;;;;5006032;28;20215;-66
2022/03/18 09:02:23;;;;;;;8.10;3.47;;;;;;;;;;5006218;28;20259;-66
2022/03/18 09:04:51;;;;;;;5.40;3.50;;;;;;;;;;5022615;28;20201;-66
2022/03/18 09:07:20;;;;;;;5.27;3.70;;;;;;;;;;5019032;28;20197;-66
2022/03/18 09:09:47;;;;;;;5.30;3.30;;;;;;;;;;5022296;28;20802;-66
2022/03/18 09:12:18;;;;;;;4.63;3.53;;;;;;;;;;5000945;28;20201;-66
2022/03/18 09:14:45;;;;;;;6.73;3.83;;;;;;;;;;5022151;28;20204;-66
2022/03/18 09:17:12;;;;;;;6.37;3.63;;;;;;;;;;5006528;28;20205;-66
2022/03/18 09:19:39;;;;;;;5.70;3.40;;;;;;;;;;5006416;28;20657;-66
2022/03/18 09:22:07;;;;;;;6.13;4.03;;;;;;;;;;5021243;28;20227;-66
2022/03/18 09:24:35;;;;;;;8.13;3.53;;;;;;;;;;5005462;28;20319;-66
2022/03/18 09:27:03;;;;;;;4.97;3.70;;;;;;;;;;5004163;28;20661;-66
2022/03/18 09:29:30;;;;;;;4.80;3.70;;;;;;;;;;5005744;28;20197;-66
2022/03/18 09:31:57;;;;;;;4.27;3.60;;;;;;;;;;5004174;28;20189;-66
2022/03/18 09:34:24;;;;;;;5.63;3.87;;;;;;;;;;5019938;28;20620;-66
2022/03/18 09:36:56;;;;;;;6.70;3.60;;;;;;;;;;5004104;28;20218;-66
2022/03/18 09:39:24;;;;;;;6.50;3.47;;;;;;;;;;5005433;28;20208;-67
2022/03/18 09:41:52;;;;;;;6.10;3.77;;;;;;;;;;5008798;28;20220;-66
2022/03/18 09:44:19;;;;;;;7.80;3.90;;;;;;;;;;5021821;28;20695;-67
2022/03/18 09:46:49;;;;;;;4.70;3.83;;;;;;;;;;5006219;28;20299;-67
2022/03/18 09:49:36;;;;;;;6.17;3.97;;;;;;;;;;5001720;28;20307;-67
2022/03/18 09:52:05;;;;;;;5.60;3.50;;;;;;;;;;5000536;28;20205;-67
2022/03/18 09:54:34;;;;;;;4.50;3.40;;;;;;;;;;5005136;28;20665;-68
2022/03/18 09:57:02;;;;;;;4.07;3.67;;;;;;;;;;5004848;28;20263;-68
2022/03/18 09:59:29;;;;;;;5.20;4.03;;;;;;;;;;5005239;28;20201;-68
2022/03/18 10:02:26;;;;;;;7.70;3.70;;;;;;;;;;5005502;28;20216;-68
2022/03/18 10:04:54;;;;;;;4.77;3.20;;;;;;;;;;5012548;28;20200;-68
2022/03/18 10:07:21;;;;;;;6.37;3.50;;;19.90;99.90;;;;;;5006842;28;20185;-68
2022/03/18 10:09:49;;;;;;;4.03;3.57;;;21.40;99.90;;;;;;5020959;28;20242;-68
2022/03/18 10:12:35;;;;;;;5.93;3.30;;;24.50;99.90;;;;;;5003590;28;20224;-68
2022/03/18 10:15:14;;;;;;;4.90;3.23;;;25.80;99.90;;;;;;5003946;28;20705;-68
2022/03/18 10:17:54;;;;;;;5.63;2.90;;;23.40;99.90;;;;;;5002573;28;20815;-68
2022/03/18 10:20:30;;;;;;;5.83;3.60;;;21.00;99.90;;;;;;5000525;28;20184;-69
2022/03/18 10:23:18;;;;;;;6.33;3.40;;;19.60;99.90;;;;;;5015858;28;20190;-68
2022/03/18 10:25:56;;;;;;;4.77;3.17;;;19.00;99.90;;;;;;5003268;28;20203;-68
2022/03/18 10:28:37;;;;;;;4.83;3.23;;;19.10;99.90;;;;;;5004131;28;20204;-68
2022/03/18 10:31:21;;;;;;;3.87;2.83;;;19.60;99.90;;;;;;5000197;28;20569;-68
2022/03/18 10:39:45;;;;;;;6.10;3.37;;;19.50;99.90;;;;;;5004685;28;20287;-67
2022/03/18 10:42:20;;;;;;;5.87;3.60;;;18.20;99.90;;;;;;5006631;28;20228;-68
2022/03/18 10:44:59;;;;;;;3.77;3.30;;;17.50;99.90;;;;;;5007790;28;20203;-68
2022/03/18 10:47:42;;;;;;;7.10;3.50;;;17.20;99.90;;;;;;5004726;28;20268;-68
2022/03/18 10:50:15;;;;;;;7.83;3.70;;;17.00;99.90;;;;;;5007057;28;20192;-68
2022/03/18 10:53:06;;;;;;;4.13;3.33;;;16.80;99.90;;;;;;5008372;28;21064;-68
2022/03/18 10:55:36;;;;;;;4.20;3.40;;;16.80;99.90;;;;;;5007862;28;20228;-68
2022/03/18 10:58:12;;;;;;;3.70;3.30;;;16.60;99.90;;;;;;5007600;28;20224;-68
2022/03/18 11:00:50;;;;;;;3.93;3.50;;;16.30;99.90;;;;;;5008433;28;20321;-68
2022/03/18 11:03:17;;;;;;;6.17;3.60;;;16.20;99.90;;;;;;5006904;28;20195;-68
2022/03/18 11:05:51;;;;;;;4.20;3.10;;;16.10;99.90;;;;;;5022254;28;20197;-68
2022/03/18 11:08:23;;;;;;;7.63;3.60;;;16.00;99.90;;;;;;5003947;28;20585;-67
2022/03/18 11:14:03;;;;;;;5.83;3.13;;;15.70;99.90;;;;;;4983862;28;20383;-67
2022/03/18 11:16:34;;;;;;;5.10;3.33;;;15.50;99.90;;;;;;5005360;28;20728;-68
2022/03/18 11:19:05;;;;;;;4.23;3.00;;;15.40;99.90;;;;;;5008355;28;20193;-68
2022/03/18 11:21:35;;;;;;;5.70;3.30;;;15.40;99.90;;;;;;5022951;28;20312;-67
2022/03/18 11:24:22;;;;;;;4.67;3.17;;;15.30;99.90;;;;;;5023802;28;20277;-68
2022/03/18 11:26:51;;;;;;;4.53;3.70;;;15.30;99.90;;;;;;5004917;28;20654;-68
2022/03/18 11:29:24;;;;;;;9.20;3.80;;;15.10;99.90;;;;;;5024352;28;20642;-67
2022/03/18 11:32:15;;;;;;;5.70;3.60;;;15.20;99.90;;;;;;5004264;28;20311;-68
2022/03/18 11:34:47;;;;;;;6.53;3.27;;;15.20;99.90;;;;;;5005240;28;20205;-67
2022/03/18 11:37:14;;;;;;;6.30;3.20;;;15.30;99.90;;;;;;5019102;28;20229;-67
2022/03/18 11:39:40;;;;;;;4.63;3.30;;;15.20;99.90;;;;;;5005516;28;20200;-67
2022/03/18 11:42:09;;;;;;;4.00;3.20;;;15.20;99.90;;;;;;5014157;28;20573;-67
2022/03/18 11:44:55;;;;;;;4.80;3.50;;;15.20;99.90;;;;;;4993899;28;20550;-67
2022/03/18 11:47:28;;;;;;;6.07;3.73;;;15.20;99.90;;;;;;5002873;28;20197;-68
2022/03/18 11:49:57;;;;;;;6.03;3.53;;;15.20;99.90;;;;;;5007729;28;20981;-66
2022/03/18 11:52:23;;;;;;;4.07;3.40;;;15.10;99.90;;;;;;5008884;28;20224;-67
2022/03/18 11:55:06;;;;;;;5.43;3.70;;;15.10;99.90;;;;;;5003351;28;20197;-66
2022/03/18 11:57:47;;;;;;;6.57;3.83;;;15.10;99.90;;;;;;5010693;28;20196;-68
2022/03/18 12:00:42;;;;;;;4.90;3.30;;;15.20;99.90;;;;;;5007159;28;20204;-68
2022/03/18 12:03:21;;;;;;;5.40;3.60;;;15.20;99.90;;;;;;5002934;28;20189;-68
2022/03/18 12:05:59;;;;;;;3.60;3.30;;;15.20;99.90;;;;;;5009957;28;20911;-68
2022/03/18 12:08:53;;;;;;;4.67;3.60;;;15.10;99.90;;;;;;5019912;28;20335;-68
2022/03/18 12:11:36;;;;;;;3.60;3.30;;;15.10;99.90;;;;;;5000011;28;20264;-68
2022/03/18 12:14:06;;;;;;;5.00;3.60;;;15.00;99.90;;;;;;5002441;28;20201;-68
2022/03/18 12:16:33;;;;;;;6.13;3.90;;;15.00;99.90;;;;;;5006886;28;20196;-68
2022/03/18 12:19:08;;;;;;;4.37;3.70;;;14.90;99.90;;;;;;5005027;28;20199;-68
2022/03/18 12:21:38;;;;;;;4.73;3.30;;;15.00;99.90;;;;;;5008052;28;20255;-67
2022/03/18 12:24:08;;;;;;;5.40;3.70;;;15.00;99.90;;;;;;5005090;28;20196;-68
2022/03/18 12:26:36;;;;;;;6.13;3.87;;;15.00;99.90;;;;;;5005312;28;20189;-67
2022/03/18 12:29:04;;;;;;;5.27;3.60;;;14.90;99.90;;;;;;5008749;28;20204;-68
2022/03/18 12:31:31;;;;;;;5.17;3.40;;;14.90;99.90;;;;;;5001349;28;20272;-68
2022/03/18 12:34:07;;;;;;;6.67;3.37;;;14.90;99.90;;;;;;5005258;28;20189;-68
2022/03/18 12:36:40;;;;;;;7.23;3.80;;;14.90;99.90;;;;;;5006594;28;20224;-68
2022/03/18 12:39:10;;;;;;;5.50;3.30;;;14.80;99.90;;;;;;5009962;28;20200;-68
2022/03/18 12:41:40;;;;;;;4.70;3.73;;;14.80;99.90;;;;;;5002478;28;20216;-68
2022/03/18 12:44:06;;;;;;;5.57;3.73;;;14.70;99.90;;;;;;5018719;28;20198;-68
2022/03/18 12:46:37;;;;;;;5.60;3.47;;;14.80;99.90;;;;;;5003878;28;20204;-68
2022/03/18 12:49:06;;;;;;;5.20;3.50;;;14.80;99.90;;;;;;5004943;28;20192;-68
2022/03/18 12:51:35;;;;;;;5.90;3.40;;;14.80;99.90;;;;;;5020041;28;20193;-68
2022/03/18 12:54:02;;;;;;;9.10;3.87;;;14.80;99.90;;;;;;5006531;28;20197;-68
2022/03/18 12:56:30;;;;;;;5.27;3.63;;;14.70;99.90;;;;;;5005751;28;20303;-68
2022/03/18 12:58:57;;;;;;;8.57;3.73;;;14.80;99.90;;;;;;4998074;28;20813;-68
2022/03/18 13:01:25;;;;;;;7.07;4.57;;;14.80;99.90;;;;;;5007503;28;20213;-68
2022/03/18 13:03:55;;;;;;;9.47;3.70;;;14.90;99.90;;;;;;5004683;28;20538;-68
2022/03/18 13:06:27;;;;;;;5.63;3.50;;;14.80;99.90;;;;;;5006330;28;20193;-68
2022/03/18 13:09:13;;;;;;;5.13;3.30;;;14.70;99.90;;;;;;5003274;28;20181;-68
2022/03/18 13:11:40;;;;;;;10.53;3.40;;;14.70;99.90;;;;;;5020373;28;20250;-68
2022/03/18 13:14:07;;;;;;;9.90;3.80;;;14.60;99.90;;;;;;4996878;28;20315;-68
2022/03/18 13:16:44;;;;;;;4.97;3.70;;;14.60;99.90;;;;;;5004970;28;20185;-68
2022/03/18 13:19:10;;;;;;;6.23;3.90;;;14.60;99.90;;;;;;4989818;28;20209;-68
2022/03/18 13:21:47;;;;;;;6.77;3.47;;;14.70;99.90;;;;;;4990685;28;20305;-68
2022/03/18 13:24:14;;;;;;;8.63;3.40;;;14.60;99.90;;;;;;5009764;28;20169;-68
2022/03/18 13:26:47;;;;;;;6.13;3.73;;;14.50;99.90;;;;;;5024564;28;20276;-68
2022/03/18 13:29:15;;;;;;;5.13;3.70;;;14.40;99.90;;;;;;5009164;28;20205;-68
2022/03/18 13:34:33;;;;;;;8.93;3.87;;;14.20;99.90;;;;;;4995788;28;20225;-68
2022/03/18 13:37:17;;;;;;;8.63;3.60;;;14.20;99.90;;;;;;5008107;28;20597;-68
2022/03/18 13:39:45;;;;;;;6.57;3.47;;;14.10;99.90;;;;;;4988505;28;20216;-68
2022/03/18 13:42:26;;;;;;;10.23;4.20;;;14.00;99.90;;;;;;4988389;28;20213;-68
2022/03/18 13:44:53;;;;;;;6.07;3.97;;;13.90;99.90;;;;;;4971949;28;20328;-68
2022/03/18 13:47:19;;;;;;;9.17;4.27;;;13.90;99.90;;;;;;5000431;28;20678;-68
2022/03/18 13:50:01;;;;;;;5.60;3.70;;;13.80;99.90;;;;;;5009528;28;20220;-68
2022/03/18 13:52:36;;;;;;;5.27;3.80;;;13.60;99.90;;;;;;5008134;28;20198;-68